sensor_id;sensor_type;location;lat;lon;timestamp;P1;durP1;ratioP1;P2;durP2;ratioP2
3726;SDS011;1879;45.876;12.300;2023-04-12T00:00:40;14.50;;;13.03;;
3726;SDS011;1879;45.876;12.300;2023-04-12T00:03:08;15.00;;;13.33;;
3726;SDS011;1879;45.876;12.300;2023-04-12T00:05:35;14.93;;;13.10;;
3726;SDS011;1879;45.876;12.300;2023-04-12T00:08:02;16.50;;;12.90;;
3726;SDS011;1879;45.876;12.300;2023-04-12T00:10:31;20.10;;;13.00;;
3726;SDS011;1879;45.876;12.300;2023-04-12T00:12:58;14.63;;;13.13;;
3726;SDS011;1879;45.876;12.300;2023-04-12T00:15:26;14.43;;;12.50;;
3726;SDS011;1879;45.876;12.300;2023-04-12T00:17:53;13.60;;;12.20;;
3726;SDS011;1879;45.876;12.300;2023-04-12T00:20:20;15.33;;;13.70;;
3726;SDS011;1879;45.876;12.300;2023-04-12T00:22:47;15.00;;;12.57;;
3726;SDS011;1879;45.876;12.300;2023-04-12T00:25:14;13.60;;;12.30;;
3726;SDS011;1879;45.876;12.300;2023-04-12T00:27:42;13.53;;;12.23;;
3726;SDS011;1879;45.876;12.300;2023-04-12T00:30:09;15.60;;;13.80;;
3726;SDS011;1879;45.876;12.300;2023-04-12T00:32:39;16.93;;;13.67;;
3726;SDS011;1879;45.876;12.300;2023-04-12T00:35:07;13.73;;;11.93;;
3726;SDS011;1879;45.876;12.300;2023-04-12T00:37:34;13.47;;;12.03;;
3726;SDS011;1879;45.876;12.300;2023-04-12T00:40:02;14.18;;;11.85;;
3726;SDS011;1879;45.876;12.300;2023-04-12T00:42:32;13.77;;;11.83;;
3726;SDS011;1879;45.876;12.300;2023-04-12T00:45:01;12.43;;;11.13;;
3726;SDS011;1879;45.876;12.300;2023-04-12T00:47:28;14.60;;;12.10;;
3726;SDS011;1879;45.876;12.300;2023-04-12T00:49:56;14.27;;;11.90;;
3726;SDS011;1879;45.876;12.300;2023-04-12T00:52:25;15.00;;;11.80;;
3726;SDS011;1879;45.876;12.300;2023-04-12T00:54:58;14.57;;;12.40;;
3726;SDS011;1879;45.876;12.300;2023-04-12T00:57:25;13.50;;;11.30;;
3726;SDS011;1879;45.876;12.300;2023-04-12T00:59:52;14.37;;;11.73;;
3726;SDS011;1879;45.876;12.300;2023-04-12T01:02:20;12.20;;;10.87;;
3726;SDS011;1879;45.876;12.300;2023-04-12T01:04:47;12.97;;;10.40;;
3726;SDS011;1879;45.876;12.300;2023-04-12T01:07:18;12.60;;;11.30;;
3726;SDS011;1879;45.876;12.300;2023-04-12T01:09:52;13.50;;;10.83;;
3726;SDS011;1879;45.876;12.300;2023-04-12T01:12:32;12.37;;;11.07;;
3726;SDS011;1879;45.876;12.300;2023-04-12T01:15:07;12.07;;;10.80;;
3726;SDS011;1879;45.876;12.300;2023-04-12T01:17:38;12.10;;;10.90;;
3726;SDS011;1879;45.876;12.300;2023-04-12T01:20:13;11.77;;;10.53;;
3726;SDS011;1879;45.876;12.300;2023-04-12T01:26:06;17.37;;;11.93;;
3726;SDS011;1879;45.876;12.300;2023-04-12T01:28:40;11.63;;;10.13;;
3726;SDS011;1879;45.876;12.300;2023-04-12T01:31:09;16.55;;;10.93;;
3726;SDS011;1879;45.876;12.300;2023-04-12T01:33:38;11.63;;;10.23;;
3726;SDS011;1879;45.876;12.300;2023-04-12T01:36:09;12.00;;;10.50;;
3726;SDS011;1879;45.876;12.300;2023-04-12T01:38:39;11.63;;;10.43;;
3726;SDS011;1879;45.876;12.300;2023-04-12T01:41:07;10.73;;;9.53;;
3726;SDS011;1879;45.876;12.300;2023-04-12T01:43:40;12.07;;;10.90;;
3726;SDS011;1879;45.876;12.300;2023-04-12T01:46:08;12.27;;;11.07;;
3726;SDS011;1879;45.876;12.300;2023-04-12T01:48:35;12.37;;;10.60;;
3726;SDS011;1879;45.876;12.300;2023-04-12T01:51:04;11.77;;;10.50;;
3726;SDS011;1879;45.876;12.300;2023-04-12T01:53:35;15.05;;;10.68;;
3726;SDS011;1879;45.876;12.300;2023-04-12T01:56:10;12.50;;;11.20;;
3726;SDS011;1879;45.876;12.300;2023-04-12T01:58:38;15.57;;;10.27;;
3726;SDS011;1879;45.876;12.300;2023-04-12T02:01:09;10.60;;;9.60;;
3726;SDS011;1879;45.876;12.300;2023-04-12T02:03:38;11.87;;;10.00;;
3726;SDS011;1879;45.876;12.300;2023-04-12T02:06:07;11.47;;;9.87;;
3726;SDS011;1879;45.876;12.300;2023-04-12T02:08:35;12.40;;;11.10;;
3726;SDS011;1879;45.876;12.300;2023-04-12T02:11:06;17.30;;;11.30;;
3726;SDS011;1879;45.876;12.300;2023-04-12T02:13:34;11.50;;;10.30;;
3726;SDS011;1879;45.876;12.300;2023-04-12T02:16:01;15.57;;;11.67;;
3726;SDS011;1879;45.876;12.300;2023-04-12T02:18:29;13.37;;;11.10;;
3726;SDS011;1879;45.876;12.300;2023-04-12T02:20:57;10.83;;;9.73;;
3726;SDS011;1879;45.876;12.300;2023-04-12T02:23:24;12.47;;;10.53;;
3726;SDS011;1879;45.876;12.300;2023-04-12T02:25:51;13.17;;;11.30;;
3726;SDS011;1879;45.876;12.300;2023-04-12T02:28:18;14.10;;;11.53;;
3726;SDS011;1879;45.876;12.300;2023-04-12T02:30:47;11.73;;;10.50;;
3726;SDS011;1879;45.876;12.300;2023-04-12T02:33:17;11.13;;;10.03;;
3726;SDS011;1879;45.876;12.300;2023-04-12T02:35:47;12.60;;;11.30;;
3726;SDS011;1879;45.876;12.300;2023-04-12T02:38:14;11.80;;;10.60;;
3726;SDS011;1879;45.876;12.300;2023-04-12T02:40:40;13.17;;;11.50;;
3726;SDS011;1879;45.876;12.300;2023-04-12T02:43:08;14.07;;;9.63;;
3726;SDS011;1879;45.876;12.300;2023-04-12T02:45:35;12.50;;;11.20;;
3726;SDS011;1879;45.876;12.300;2023-04-12T02:48:02;13.93;;;10.23;;
3726;SDS011;1879;45.876;12.300;2023-04-12T02:50:29;12.53;;;11.23;;
3726;SDS011;1879;45.876;12.300;2023-04-12T02:52:58;16.17;;;11.65;;
3726;SDS011;1879;45.876;12.300;2023-04-12T02:55:25;14.57;;;11.93;;
3726;SDS011;1879;45.876;12.300;2023-04-12T02:57:52;11.53;;;10.33;;
3726;SDS011;1879;45.876;12.300;2023-04-12T03:00:19;12.43;;;10.60;;
3726;SDS011;1879;45.876;12.300;2023-04-12T03:02:46;12.33;;;11.03;;
3726;SDS011;1879;45.876;12.300;2023-04-12T03:05:15;14.13;;;10.50;;
3726;SDS011;1879;45.876;12.300;2023-04-12T03:07:42;13.20;;;10.95;;
3726;SDS011;1879;45.876;12.300;2023-04-12T03:10:11;12.27;;;10.43;;
3726;SDS011;1879;45.876;12.300;2023-04-12T03:12:38;12.67;;;10.87;;
3726;SDS011;1879;45.876;12.300;2023-04-12T03:15:05;11.35;;;9.48;;
3726;SDS011;1879;45.876;12.300;2023-04-12T03:17:33;13.93;;;11.07;;
3726;SDS011;1879;45.876;12.300;2023-04-12T03:20:04;12.20;;;10.80;;
3726;SDS011;1879;45.876;12.300;2023-04-12T03:22:34;12.13;;;10.83;;
3726;SDS011;1879;45.876;12.300;2023-04-12T03:25:01;12.50;;;11.17;;
3726;SDS011;1879;45.876;12.300;2023-04-12T03:27:30;13.30;;;10.70;;
3726;SDS011;1879;45.876;12.300;2023-04-12T03:29:57;12.60;;;11.00;;
3726;SDS011;1879;45.876;12.300;2023-04-12T03:32:24;12.23;;;10.40;;
3726;SDS011;1879;45.876;12.300;2023-04-12T03:34:51;12.47;;;11.30;;
3726;SDS011;1879;45.876;12.300;2023-04-12T03:37:19;12.03;;;10.50;;
3726;SDS011;1879;45.876;12.300;2023-04-12T03:39:46;14.27;;;11.53;;
3726;SDS011;1879;45.876;12.300;2023-04-12T03:42:13;15.10;;;10.50;;
3726;SDS011;1879;45.876;12.300;2023-04-12T03:44:41;14.10;;;12.33;;
3726;SDS011;1879;45.876;12.300;2023-04-12T03:47:08;13.40;;;12.00;;
3726;SDS011;1879;45.876;12.300;2023-04-12T03:49:36;13.18;;;11.77;;
3726;SDS011;1879;45.876;12.300;2023-04-12T03:52:03;13.07;;;11.43;;
3726;SDS011;1879;45.876;12.300;2023-04-12T03:54:31;14.50;;;12.20;;
3726;SDS011;1879;45.876;12.300;2023-04-12T03:56:58;11.60;;;10.40;;
3726;SDS011;1879;45.876;12.300;2023-04-12T03:59:25;14.80;;;12.30;;
3726;SDS011;1879;45.876;12.300;2023-04-12T04:01:54;12.87;;;11.53;;
3726;SDS011;1879;45.876;12.300;2023-04-12T04:04:21;12.80;;;11.50;;
3726;SDS011;1879;45.876;12.300;2023-04-12T04:06:48;13.43;;;12.03;;
3726;SDS011;1879;45.876;12.300;2023-04-12T04:09:16;14.70;;;12.00;;
3726;SDS011;1879;45.876;12.300;2023-04-12T04:11:43;13.87;;;12.00;;
3726;SDS011;1879;45.876;12.300;2023-04-12T04:14:10;12.63;;;11.10;;
3726;SDS011;1879;45.876;12.300;2023-04-12T04:16:37;12.90;;;11.20;;
3726;SDS011;1879;45.876;12.300;2023-04-12T04:19:06;12.27;;;11.07;;
3726;SDS011;1879;45.876;12.300;2023-04-12T04:21:33;12.20;;;10.90;;
3726;SDS011;1879;45.876;12.300;2023-04-12T04:24:00;14.17;;;12.70;;
3726;SDS011;1879;45.876;12.300;2023-04-12T04:26:28;15.03;;;12.70;;
3726;SDS011;1879;45.876;12.300;2023-04-12T04:28:57;13.83;;;11.70;;
3726;SDS011;1879;45.876;12.300;2023-04-12T04:31:27;15.30;;;13.70;;
3726;SDS011;1879;45.876;12.300;2023-04-12T04:33:58;13.27;;;11.30;;
3726;SDS011;1879;45.876;12.300;2023-04-12T04:36:28;13.20;;;11.90;;
3726;SDS011;1879;45.876;12.300;2023-04-12T04:38:58;14.70;;;12.30;;
3726;SDS011;1879;45.876;12.300;2023-04-12T04:41:25;15.13;;;11.93;;
3726;SDS011;1879;45.876;12.300;2023-04-12T04:43:52;13.27;;;11.87;;
3726;SDS011;1879;45.876;12.300;2023-04-12T04:46:19;14.23;;;12.07;;
3726;SDS011;1879;45.876;12.300;2023-04-12T04:48:46;13.70;;;12.30;;
3726;SDS011;1879;45.876;12.300;2023-04-12T04:51:15;15.67;;;13.23;;
3726;SDS011;1879;45.876;12.300;2023-04-12T04:53:44;14.37;;;12.87;;
3726;SDS011;1879;45.876;12.300;2023-04-12T04:56:11;15.00;;;13.03;;
3726;SDS011;1879;45.876;12.300;2023-04-12T04:58:38;16.90;;;12.83;;
3726;SDS011;1879;45.876;12.300;2023-04-12T05:01:05;13.80;;;12.40;;
3726;SDS011;1879;45.876;12.300;2023-04-12T05:03:32;13.70;;;11.63;;
3726;SDS011;1879;45.876;12.300;2023-04-12T05:06:01;12.90;;;11.70;;
3726;SDS011;1879;45.876;12.300;2023-04-12T05:08:28;14.77;;;12.63;;
3726;SDS011;1879;45.876;12.300;2023-04-12T05:10:56;17.27;;;12.30;;
3726;SDS011;1879;45.876;12.300;2023-04-12T05:13:23;13.43;;;12.03;;
3726;SDS011;1879;45.876;12.300;2023-04-12T05:15:50;15.83;;;13.17;;
3726;SDS011;1879;45.876;12.300;2023-04-12T05:18:17;16.47;;;13.60;;
3726;SDS011;1879;45.876;12.300;2023-04-12T05:20:44;16.03;;;14.40;;
3726;SDS011;1879;45.876;12.300;2023-04-12T05:23:12;15.53;;;13.43;;
3726;SDS011;1879;45.876;12.300;2023-04-12T05:25:42;17.27;;;12.90;;
3726;SDS011;1879;45.876;12.300;2023-04-12T05:28:14;15.83;;;13.90;;
3726;SDS011;1879;45.876;12.300;2023-04-12T05:30:41;14.07;;;12.30;;
3726;SDS011;1879;45.876;12.300;2023-04-12T05:33:08;18.83;;;12.73;;
3726;SDS011;1879;45.876;12.300;2023-04-12T05:35:36;16.03;;;13.40;;
3726;SDS011;1879;45.876;12.300;2023-04-12T05:38:03;17.63;;;13.93;;
3726;SDS011;1879;45.876;12.300;2023-04-12T05:40:30;16.70;;;13.70;;
3726;SDS011;1879;45.876;12.300;2023-04-12T05:42:57;18.60;;;14.23;;
3726;SDS011;1879;45.876;12.300;2023-04-12T05:45:26;15.77;;;14.17;;
3726;SDS011;1879;45.876;12.300;2023-04-12T05:47:53;16.23;;;13.70;;
3726;SDS011;1879;45.876;12.300;2023-04-12T05:50:20;16.83;;;14.67;;
3726;SDS011;1879;45.876;12.300;2023-04-12T05:52:49;19.90;;;13.87;;
3726;SDS011;1879;45.876;12.300;2023-04-12T05:55:17;24.00;;;14.87;;
3726;SDS011;1879;45.876;12.300;2023-04-12T05:57:45;20.37;;;13.83;;
3726;SDS011;1879;45.876;12.300;2023-04-12T06:00:13;19.17;;;14.70;;
3726;SDS011;1879;45.876;12.300;2023-04-12T06:02:44;16.60;;;14.97;;
3726;SDS011;1879;45.876;12.300;2023-04-12T06:05:12;19.67;;;16.17;;
3726;SDS011;1879;45.876;12.300;2023-04-12T06:07:41;20.23;;;15.85;;
3726;SDS011;1879;45.876;12.300;2023-04-12T06:10:12;22.07;;;16.97;;
3726;SDS011;1879;45.876;12.300;2023-04-12T06:12:40;25.20;;;16.40;;
3726;SDS011;1879;45.876;12.300;2023-04-12T06:15:07;27.60;;;17.37;;
3726;SDS011;1879;45.876;12.300;2023-04-12T06:17:35;21.10;;;15.20;;
3726;SDS011;1879;45.876;12.300;2023-04-12T06:20:04;17.87;;;15.63;;
3726;SDS011;1879;45.876;12.300;2023-04-12T06:22:33;17.37;;;15.60;;
3726;SDS011;1879;45.876;12.300;2023-04-12T06:25:00;20.13;;;15.50;;
3726;SDS011;1879;45.876;12.300;2023-04-12T06:27:27;19.70;;;16.10;;
3726;SDS011;1879;45.876;12.300;2023-04-12T06:29:54;19.43;;;17.03;;
3726;SDS011;1879;45.876;12.300;2023-04-12T06:32:21;22.90;;;16.47;;
3726;SDS011;1879;45.876;12.300;2023-04-12T06:34:48;17.50;;;15.70;;
3726;SDS011;1879;45.876;12.300;2023-04-12T06:37:20;21.03;;;16.50;;
3726;SDS011;1879;45.876;12.300;2023-04-12T06:39:47;18.43;;;14.47;;
3726;SDS011;1879;45.876;12.300;2023-04-12T06:42:14;14.60;;;13.10;;
3726;SDS011;1879;45.876;12.300;2023-04-12T06:44:41;16.40;;;14.63;;
3726;SDS011;1879;45.876;12.300;2023-04-12T06:47:08;18.03;;;13.50;;
3726;SDS011;1879;45.876;12.300;2023-04-12T06:49:35;18.83;;;12.43;;
3726;SDS011;1879;45.876;12.300;2023-04-12T06:52:03;17.30;;;12.47;;
3726;SDS011;1879;45.876;12.300;2023-04-12T06:54:31;12.30;;;11.00;;
3726;SDS011;1879;45.876;12.300;2023-04-12T06:56:58;12.63;;;11.40;;
3726;SDS011;1879;45.876;12.300;2023-04-12T06:59:26;11.80;;;10.67;;
3726;SDS011;1879;45.876;12.300;2023-04-12T07:01:53;12.50;;;11.25;;
3726;SDS011;1879;45.876;12.300;2023-04-12T07:04:20;12.13;;;10.90;;
3726;SDS011;1879;45.876;12.300;2023-04-12T07:06:47;12.70;;;11.00;;
3726;SDS011;1879;45.876;12.300;2023-04-12T07:09:14;13.50;;;12.13;;
3726;SDS011;1879;45.876;12.300;2023-04-12T07:11:42;13.03;;;11.60;;
3726;SDS011;1879;45.876;12.300;2023-04-12T07:14:09;13.75;;;11.45;;
3726;SDS011;1879;45.876;12.300;2023-04-12T07:16:36;13.00;;;11.20;;
3726;SDS011;1879;45.876;12.300;2023-04-12T07:19:03;12.68;;;11.48;;
3726;SDS011;1879;45.876;12.300;2023-04-12T07:21:30;10.60;;;9.50;;
3726;SDS011;1879;45.876;12.300;2023-04-12T07:23:59;10.83;;;9.73;;
3726;SDS011;1879;45.876;12.300;2023-04-12T07:26:26;11.13;;;9.80;;
3726;SDS011;1879;45.876;12.300;2023-04-12T07:28:55;11.27;;;10.07;;
3726;SDS011;1879;45.876;12.300;2023-04-12T07:31:22;13.45;;;10.63;;
3726;SDS011;1879;45.876;12.300;2023-04-12T07:33:49;12.07;;;10.40;;
3726;SDS011;1879;45.876;12.300;2023-04-12T07:36:16;13.47;;;10.60;;
3726;SDS011;1879;45.876;12.300;2023-04-12T07:38:45;12.53;;;10.43;;
3726;SDS011;1879;45.876;12.300;2023-04-12T07:41:12;9.73;;;8.80;;
3726;SDS011;1879;45.876;12.300;2023-04-12T07:43:39;10.70;;;9.20;;
3726;SDS011;1879;45.876;12.300;2023-04-12T07:46:08;10.27;;;9.20;;
3726;SDS011;1879;45.876;12.300;2023-04-12T07:48:35;10.57;;;9.47;;
3726;SDS011;1879;45.876;12.300;2023-04-12T07:51:02;11.37;;;9.60;;
3726;SDS011;1879;45.876;12.300;2023-04-12T07:53:30;10.90;;;9.80;;
3726;SDS011;1879;45.876;12.300;2023-04-12T07:55:59;10.57;;;9.53;;
3726;SDS011;1879;45.876;12.300;2023-04-12T07:58:29;11.37;;;9.10;;
3726;SDS011;1879;45.876;12.300;2023-04-12T08:00:57;11.23;;;8.17;;
3726;SDS011;1879;45.876;12.300;2023-04-12T08:03:26;9.00;;;8.10;;
3726;SDS011;1879;45.876;12.300;2023-04-12T08:05:53;8.45;;;7.65;;
3726;SDS011;1879;45.876;12.300;2023-04-12T08:08:20;9.60;;;8.00;;
3726;SDS011;1879;45.876;12.300;2023-04-12T08:10:48;11.27;;;8.27;;
3726;SDS011;1879;45.876;12.300;2023-04-12T08:13:15;9.47;;;8.17;;
3726;SDS011;1879;45.876;12.300;2023-04-12T08:15:43;12.00;;;8.20;;
3726;SDS011;1879;45.876;12.300;2023-04-12T08:18:11;8.70;;;7.80;;
3726;SDS011;1879;45.876;12.300;2023-04-12T08:20:39;7.97;;;7.17;;
3726;SDS011;1879;45.876;12.300;2023-04-12T08:23:08;8.50;;;7.53;;
3726;SDS011;1879;45.876;12.300;2023-04-12T08:25:35;9.97;;;7.50;;
3726;SDS011;1879;45.876;12.300;2023-04-12T08:28:02;7.00;;;6.40;;
3726;SDS011;1879;45.876;12.300;2023-04-12T08:30:31;7.80;;;5.27;;
3726;SDS011;1879;45.876;12.300;2023-04-12T08:32:58;10.13;;;6.77;;
3726;SDS011;1879;45.876;12.300;2023-04-12T08:35:25;8.90;;;6.83;;
3726;SDS011;1879;45.876;12.300;2023-04-12T08:37:53;7.40;;;5.60;;
3726;SDS011;1879;45.876;12.300;2023-04-12T08:40:21;5.53;;;4.90;;
3726;SDS011;1879;45.876;12.300;2023-04-12T08:42:48;6.20;;;5.60;;
3726;SDS011;1879;45.876;12.300;2023-04-12T08:45:17;8.43;;;5.70;;
3726;SDS011;1879;45.876;12.300;2023-04-12T08:47:47;7.10;;;6.37;;
3726;SDS011;1879;45.876;12.300;2023-04-12T08:50:14;7.07;;;6.37;;
3726;SDS011;1879;45.876;12.300;2023-04-12T08:52:42;6.97;;;6.27;;
3726;SDS011;1879;45.876;12.300;2023-04-12T08:55:12;9.23;;;7.70;;
3726;SDS011;1879;45.876;12.300;2023-04-12T08:57:40;9.80;;;8.30;;
3726;SDS011;1879;45.876;12.300;2023-04-12T09:00:08;9.17;;;6.97;;
3726;SDS011;1879;45.876;12.300;2023-04-12T09:02:37;7.27;;;6.53;;
3726;SDS011;1879;45.876;12.300;2023-04-12T09:05:07;8.53;;;6.27;;
3726;SDS011;1879;45.876;12.300;2023-04-12T09:07:34;6.40;;;5.90;;
3726;SDS011;1879;45.876;12.300;2023-04-12T09:10:01;7.67;;;6.87;;
3726;SDS011;1879;45.876;12.300;2023-04-12T09:12:31;9.27;;;7.10;;
3726;SDS011;1879;45.876;12.300;2023-04-12T09:15:05;8.32;;;7.40;;
3726;SDS011;1879;45.876;12.300;2023-04-12T09:17:33;8.23;;;7.43;;
3726;SDS011;1879;45.876;12.300;2023-04-12T09:20:05;7.90;;;6.73;;
3726;SDS011;1879;45.876;12.300;2023-04-12T09:22:49;8.97;;;7.47;;
3726;SDS011;1879;45.876;12.300;2023-04-12T09:25:19;9.40;;;6.97;;
3726;SDS011;1879;45.876;12.300;2023-04-12T09:28:04;7.80;;;7.00;;
3726;SDS011;1879;45.876;12.300;2023-04-12T09:30:44;8.47;;;7.37;;
3726;SDS011;1879;45.876;12.300;2023-04-12T09:33:15;9.07;;;7.77;;
3726;SDS011;1879;45.876;12.300;2023-04-12T09:35:43;10.03;;;7.10;;
3726;SDS011;1879;45.876;12.300;2023-04-12T09:38:10;8.70;;;7.70;;
3726;SDS011;1879;45.876;12.300;2023-04-12T09:40:38;10.85;;;8.25;;
3726;SDS011;1879;45.876;12.300;2023-04-12T09:43:06;8.30;;;7.27;;
3726;SDS011;1879;45.876;12.300;2023-04-12T09:45:34;7.97;;;7.17;;
3726;SDS011;1879;45.876;12.300;2023-04-12T09:48:03;9.53;;;7.37;;
3726;SDS011;1879;45.876;12.300;2023-04-12T09:50:31;8.63;;;7.83;;
3726;SDS011;1879;45.876;12.300;2023-04-12T09:52:59;8.77;;;7.93;;
3726;SDS011;1879;45.876;12.300;2023-04-12T09:55:27;7.80;;;7.10;;
3726;SDS011;1879;45.876;12.300;2023-04-12T09:57:56;12.73;;;7.90;;
3726;SDS011;1879;45.876;12.300;2023-04-12T10:00:29;8.30;;;7.47;;
3726;SDS011;1879;45.876;12.300;2023-04-12T10:02:58;8.53;;;7.63;;
3726;SDS011;1879;45.876;12.300;2023-04-12T10:05:25;7.00;;;6.32;;
3726;SDS011;1879;45.876;12.300;2023-04-12T10:07:53;7.83;;;6.93;;
3726;SDS011;1879;45.876;12.300;2023-04-12T10:10:21;7.75;;;7.05;;
3726;SDS011;1879;45.876;12.300;2023-04-12T10:12:48;6.87;;;6.20;;
3726;SDS011;1879;45.876;12.300;2023-04-12T10:15:15;8.40;;;7.50;;
3726;SDS011;1879;45.876;12.300;2023-04-12T10:17:47;7.87;;;6.60;;
3726;SDS011;1879;45.876;12.300;2023-04-12T10:20:16;7.93;;;6.80;;
3726;SDS011;1879;45.876;12.300;2023-04-12T10:22:46;8.93;;;5.70;;
3726;SDS011;1879;45.876;12.300;2023-04-12T10:25:17;7.97;;;7.13;;
3726;SDS011;1879;45.876;12.300;2023-04-12T10:27:47;7.50;;;6.67;;
3726;SDS011;1879;45.876;12.300;2023-04-12T10:30:22;8.32;;;7.40;;
3726;SDS011;1879;45.876;12.300;2023-04-12T10:33:13;6.53;;;5.93;;
3726;SDS011;1879;45.876;12.300;2023-04-12T10:35:49;7.13;;;6.43;;
3726;SDS011;1879;45.876;12.300;2023-04-12T10:38:44;6.53;;;5.93;;
3726;SDS011;1879;45.876;12.300;2023-04-12T10:41:15;6.77;;;6.07;;
3726;SDS011;1879;45.876;12.300;2023-04-12T10:43:45;6.22;;;5.63;;
3726;SDS011;1879;45.876;12.300;2023-04-12T10:49:19;6.00;;;5.50;;
3726;SDS011;1879;45.876;12.300;2023-04-12T10:52:09;6.80;;;6.20;;
3726;SDS011;1879;45.876;12.300;2023-04-12T10:54:42;7.30;;;6.60;;
3726;SDS011;1879;45.876;12.300;2023-04-12T11:00:12;8.50;;;7.37;;
3726;SDS011;1879;45.876;12.300;2023-04-12T11:08:31;7.93;;;7.10;;
3726;SDS011;1879;45.876;12.300;2023-04-12T11:11:17;8.07;;;7.30;;
3726;SDS011;1879;45.876;12.300;2023-04-12T11:13:47;8.80;;;7.90;;
3726;SDS011;1879;45.876;12.300;2023-04-12T11:16:20;9.20;;;8.40;;
3726;SDS011;1879;45.876;12.300;2023-04-12T11:18:48;8.80;;;7.90;;
3726;SDS011;1879;45.876;12.300;2023-04-12T11:21:19;8.77;;;7.88;;
3726;SDS011;1879;45.876;12.300;2023-04-12T11:23:50;9.93;;;8.07;;
3726;SDS011;1879;45.876;12.300;2023-04-12T11:26:20;9.00;;;8.20;;
3726;SDS011;1879;45.876;12.300;2023-04-12T11:28:49;9.20;;;8.30;;
3726;SDS011;1879;45.876;12.300;2023-04-12T11:31:20;8.17;;;7.47;;
3726;SDS011;1879;45.876;12.300;2023-04-12T11:33:49;8.87;;;8.03;;
3726;SDS011;1879;45.876;12.300;2023-04-12T11:36:23;8.17;;;7.37;;
3726;SDS011;1879;45.876;12.300;2023-04-12T11:38:52;8.80;;;7.07;;
3726;SDS011;1879;45.876;12.300;2023-04-12T11:41:21;8.40;;;7.10;;
3726;SDS011;1879;45.876;12.300;2023-04-12T11:43:50;8.82;;;7.93;;
3726;SDS011;1879;45.876;12.300;2023-04-12T11:46:19;8.20;;;7.45;;
3726;SDS011;1879;45.876;12.300;2023-04-12T11:48:48;8.30;;;7.33;;
3726;SDS011;1879;45.876;12.300;2023-04-12T11:51:18;8.17;;;7.40;;
3726;SDS011;1879;45.876;12.300;2023-04-12T11:53:54;8.10;;;7.40;;
3726;SDS011;1879;45.876;12.300;2023-04-12T11:56:23;7.40;;;6.70;;
3726;SDS011;1879;45.876;12.300;2023-04-12T11:58:53;8.83;;;8.03;;
3726;SDS011;1879;45.876;12.300;2023-04-12T12:01:23;7.43;;;6.63;;
3726;SDS011;1879;45.876;12.300;2023-04-12T12:03:52;8.60;;;7.27;;
3726;SDS011;1879;45.876;12.300;2023-04-12T12:06:21;7.87;;;7.10;;
3726;SDS011;1879;45.876;12.300;2023-04-12T12:08:52;7.93;;;7.23;;
3726;SDS011;1879;45.876;12.300;2023-04-12T12:11:22;8.82;;;8.02;;
3726;SDS011;1879;45.876;12.300;2023-04-12T12:13:52;10.10;;;7.13;;
3726;SDS011;1879;45.876;12.300;2023-04-12T12:16:24;9.10;;;8.20;;
3726;SDS011;1879;45.876;12.300;2023-04-12T12:18:54;8.57;;;7.87;;
3726;SDS011;1879;45.876;12.300;2023-04-12T12:21:23;8.30;;;7.32;;
3726;SDS011;1879;45.876;12.300;2023-04-12T12:23:54;8.80;;;7.90;;
3726;SDS011;1879;45.876;12.300;2023-04-12T12:26:24;8.70;;;7.80;;
3726;SDS011;1879;45.876;12.300;2023-04-12T12:28:55;8.17;;;7.27;;
3726;SDS011;1879;45.876;12.300;2023-04-12T12:31:25;7.73;;;6.97;;
3726;SDS011;1879;45.876;12.300;2023-04-12T12:33:58;8.60;;;7.73;;
3726;SDS011;1879;45.876;12.300;2023-04-12T12:36:30;9.40;;;8.50;;
3726;SDS011;1879;45.876;12.300;2023-04-12T12:39:05;9.53;;;7.30;;
3726;SDS011;1879;45.876;12.300;2023-04-12T12:41:37;10.60;;;7.00;;
3726;SDS011;1879;45.876;12.300;2023-04-12T12:44:07;8.07;;;7.37;;
3726;SDS011;1879;45.876;12.300;2023-04-12T12:46:40;8.00;;;7.27;;
3726;SDS011;1879;45.876;12.300;2023-04-12T12:49:16;8.40;;;7.00;;
3726;SDS011;1879;45.876;12.300;2023-04-12T12:51:46;8.40;;;7.23;;
3726;SDS011;1879;45.876;12.300;2023-04-12T12:54:27;7.57;;;6.78;;
3726;SDS011;1879;45.876;12.300;2023-04-12T12:56:55;8.90;;;7.20;;
3726;SDS011;1879;45.876;12.300;2023-04-12T12:59:25;7.43;;;6.73;;
3726;SDS011;1879;45.876;12.300;2023-04-12T13:01:53;8.87;;;7.37;;
3726;SDS011;1879;45.876;12.300;2023-04-12T13:04:23;8.27;;;7.47;;
3726;SDS011;1879;45.876;12.300;2023-04-12T13:06:53;8.53;;;7.50;;
3726;SDS011;1879;45.876;12.300;2023-04-12T13:09:25;8.30;;;7.50;;
3726;SDS011;1879;45.876;12.300;2023-04-12T13:11:53;8.63;;;7.73;;
3726;SDS011;1879;45.876;12.300;2023-04-12T13:14:22;8.70;;;7.23;;
3726;SDS011;1879;45.876;12.300;2023-04-12T13:16:50;9.37;;;8.40;;
3726;SDS011;1879;45.876;12.300;2023-04-12T13:19:19;8.20;;;6.75;;
3726;SDS011;1879;45.876;12.300;2023-04-12T13:21:47;8.23;;;7.53;;
3726;SDS011;1879;45.876;12.300;2023-04-12T13:24:16;7.30;;;6.60;;
3726;SDS011;1879;45.876;12.300;2023-04-12T13:26:46;8.30;;;7.50;;
3726;SDS011;1879;45.876;12.300;2023-04-12T13:29:15;7.97;;;7.22;;
3726;SDS011;1879;45.876;12.300;2023-04-12T13:31:44;7.73;;;6.93;;
3726;SDS011;1879;45.876;12.300;2023-04-12T13:34:13;7.60;;;7.00;;
3726;SDS011;1879;45.876;12.300;2023-04-12T13:36:41;8.87;;;7.97;;
3726;SDS011;1879;45.876;12.300;2023-04-12T13:39:10;8.73;;;7.80;;
3726;SDS011;1879;45.876;12.300;2023-04-12T13:41:39;8.63;;;7.83;;
3726;SDS011;1879;45.876;12.300;2023-04-12T13:44:09;8.53;;;7.63;;
3726;SDS011;1879;45.876;12.300;2023-04-12T13:46:38;9.70;;;8.10;;
3726;SDS011;1879;45.876;12.300;2023-04-12T13:49:08;8.60;;;7.70;;
3726;SDS011;1879;45.876;12.300;2023-04-12T13:51:37;11.87;;;6.70;;
3726;SDS011;1879;45.876;12.300;2023-04-12T13:54:05;9.13;;;8.23;;
3726;SDS011;1879;45.876;12.300;2023-04-12T13:56:34;8.70;;;7.80;;
3726;SDS011;1879;45.876;12.300;2023-04-12T13:59:04;8.17;;;7.37;;
3726;SDS011;1879;45.876;12.300;2023-04-12T14:01:34;9.43;;;8.37;;
3726;SDS011;1879;45.876;12.300;2023-04-12T14:04:02;12.00;;;9.33;;
3726;SDS011;1879;45.876;12.300;2023-04-12T14:06:32;8.80;;;7.90;;
3726;SDS011;1879;45.876;12.300;2023-04-12T14:09:01;8.97;;;8.07;;
3726;SDS011;1879;45.876;12.300;2023-04-12T14:11:30;12.17;;;7.60;;
3726;SDS011;1879;45.876;12.300;2023-04-12T14:14:12;8.93;;;7.60;;
3726;SDS011;1879;45.876;12.300;2023-04-12T14:16:44;9.10;;;8.20;;
3726;SDS011;1879;45.876;12.300;2023-04-12T14:19:13;8.83;;;7.80;;
3726;SDS011;1879;45.876;12.300;2023-04-12T14:21:41;8.97;;;8.17;;
3726;SDS011;1879;45.876;12.300;2023-04-12T14:24:10;10.60;;;8.80;;
3726;SDS011;1879;45.876;12.300;2023-04-12T14:26:39;10.17;;;9.17;;
3726;SDS011;1879;45.876;12.300;2023-04-12T14:29:09;12.83;;;8.10;;
3726;SDS011;1879;45.876;12.300;2023-04-12T14:31:38;8.52;;;7.63;;
3726;SDS011;1879;45.876;12.300;2023-04-12T14:34:09;10.07;;;8.70;;
3726;SDS011;1879;45.876;12.300;2023-04-12T14:36:37;10.07;;;8.40;;
3726;SDS011;1879;45.876;12.300;2023-04-12T14:39:06;8.53;;;7.67;;
3726;SDS011;1879;45.876;12.300;2023-04-12T14:41:35;10.40;;;8.87;;
3726;SDS011;1879;45.876;12.300;2023-04-12T14:44:04;9.43;;;8.50;;
3726;SDS011;1879;45.876;12.300;2023-04-12T14:46:33;10.93;;;9.63;;
3726;SDS011;1879;45.876;12.300;2023-04-12T14:49:04;13.87;;;8.47;;
3726;SDS011;1879;45.876;12.300;2023-04-12T14:51:34;11.00;;;8.73;;
3726;SDS011;1879;45.876;12.300;2023-04-12T14:54:05;9.75;;;8.75;;
3726;SDS011;1879;45.876;12.300;2023-04-12T14:56:35;9.80;;;8.80;;
3726;SDS011;1879;45.876;12.300;2023-04-12T14:59:04;11.45;;;8.73;;
3726;SDS011;1879;45.876;12.300;2023-04-12T15:01:32;8.40;;;7.57;;
3726;SDS011;1879;45.876;12.300;2023-04-12T15:04:02;9.10;;;8.20;;
3726;SDS011;1879;45.876;12.300;2023-04-12T15:06:32;8.53;;;7.73;;
3726;SDS011;1879;45.876;12.300;2023-04-12T15:09:07;9.40;;;8.60;;
3726;SDS011;1879;45.876;12.300;2023-04-12T15:11:36;18.20;;;9.07;;